PWSweather.com
Personal Weather Stations
Station Observations

YeovilGB

Lat: 50.949, Lon: -2.627

Elevation: 70

Station Type: Vantage Pro

http://www.yeovil-weather.me.uk/

High Low Average
Temperature 58.6°F14.8°C 54.6°F12.6°C 56.5°F13.6°C
Dew Point 56.0°F13.3°C 52.0°F11.1°C 54.4°F12.4°C
Winds 4.6 mph 7.4 kmh Calm Calm Calm WSWCalm WSW
Wind Gusts 9.2 mph14.8 kmh -- 1.0 mph1.6 kmh
Humidity 96% 89% 93%
Pressure 30.27 in1025.1 mb 30.02 in1016.6 mb -
Precipitation 0.02 in0.5 mm - -
Hour Temp Dew Point Humidity Winds Wind Gusts Pressure Precip Precip Rate Daily Precip Total
12:00 AM 54.6°F12.6°C 52.9°F11.6°C 94% 1.2 mph SSW1.9 kmh SSW 3.5 mph5.6 kmh 30.03 in1016.9 mb - 0.00 in0.0 mm 0.00 in0.0 mm
12:10 AM 55.1°F12.8°C 53.4°F11.9°C 94% Calm Calm -- 30.03 in1016.9 mb - 0.00 in0.0 mm 0.00 in0.0 mm
12:20 AM 55.4°F13.0°C 53.4°F11.9°C 93% Calm Calm 3.5 mph5.6 kmh 30.03 in1016.9 mb - 0.00 in0.0 mm 0.00 in0.0 mm
12:30 AM 55.8°F13.2°C 53.8°F12.1°C 93% 2.3 mph SSW3.7 kmh SSW 1.2 mph1.9 kmh 30.02 in1016.6 mb - 0.00 in0.0 mm 0.00 in0.0 mm
12:40 AM 56.0°F13.3°C 54.0°F12.2°C 93% Calm Calm 6.9 mph11.1 kmh 30.02 in1016.6 mb - 0.00 in0.0 mm 0.00 in0.0 mm
12:50 AM 56.2°F13.4°C 54.2°F12.3°C 93% 3.5 mph SSW5.6 kmh SSW 8.1 mph13.0 kmh 30.02 in1016.6 mb - 0.00 in0.0 mm 0.00 in0.0 mm
01:00 AM 56.4°F13.6°C 54.4°F12.4°C 93% 1.2 mph S1.9 kmh S 3.5 mph5.6 kmh 30.02 in1016.6 mb - 0.00 in0.0 mm 0.00 in0.0 mm
01:10 AM 56.4°F13.6°C 54.4°F12.4°C 93% 4.6 mph SSW7.4 kmh SSW 8.1 mph13.0 kmh 30.02 in1016.6 mb - 0.00 in0.0 mm 0.00 in0.0 mm
01:20 AM 56.4°F13.6°C 54.1°F12.3°C 92% 1.2 mph SW1.9 kmh SW 8.1 mph13.0 kmh 30.02 in1016.6 mb - 0.00 in0.0 mm 0.00 in0.0 mm
01:30 AM 56.5°F13.6°C 54.5°F12.5°C 93% 1.2 mph SSW1.9 kmh SSW -- 30.02 in1016.6 mb - 0.00 in0.0 mm 0.00 in0.0 mm
01:40 AM 56.5°F13.6°C 54.5°F12.5°C 93% 3.5 mph SW5.6 kmh SW 9.2 mph14.8 kmh 30.02 in1016.6 mb - 0.00 in0.0 mm 0.00 in0.0 mm
01:50 AM 56.5°F13.6°C 54.5°F12.5°C 93% 1.2 mph SW1.9 kmh SW 3.5 mph5.6 kmh 30.02 in1016.6 mb - 0.00 in0.0 mm 0.00 in0.0 mm
02:00 AM 56.4°F13.6°C 54.4°F12.4°C 93% Calm Calm 5.8 mph9.3 kmh 30.02 in1016.6 mb - 0.00 in0.0 mm 0.00 in0.0 mm
02:10 AM 56.4°F13.6°C 54.7°F12.6°C 94% 1.2 mph SW1.9 kmh SW 1.2 mph1.9 kmh 30.02 in1016.6 mb - 0.00 in0.0 mm 0.00 in0.0 mm
02:20 AM 56.3°F13.5°C 54.6°F12.6°C 94% Calm Calm 2.3 mph3.7 kmh 30.02 in1016.6 mb - 0.00 in0.0 mm 0.00 in0.0 mm
02:30 AM 56.3°F13.5°C 54.6°F12.6°C 94% Calm Calm 1.2 mph1.9 kmh 30.02 in1016.6 mb - 0.00 in0.0 mm 0.00 in0.0 mm
02:40 AM 56.2°F13.4°C 54.5°F12.5°C 94% 2.3 mph SSW3.7 kmh SSW 4.6 mph7.4 kmh 30.02 in1016.6 mb - 0.00 in0.0 mm 0.00 in0.0 mm
02:50 AM 56.3°F13.5°C 54.6°F12.6°C 94% Calm Calm -- 30.02 in1016.6 mb - 0.00 in0.0 mm 0.00 in0.0 mm
03:00 AM 56.3°F13.5°C 54.6°F12.6°C 94% Calm Calm 2.3 mph3.7 kmh 30.02 in1016.6 mb - 0.00 in0.0 mm 0.00 in0.0 mm
03:10 AM 56.3°F13.5°C 54.6°F12.6°C 94% Calm Calm -- 30.02 in1016.6 mb - 0.00 in0.0 mm 0.00 in0.0 mm
03:20 AM 56.4°F13.6°C 54.7°F12.6°C 94% 1.2 mph SSW1.9 kmh SSW 5.8 mph9.3 kmh 30.02 in1016.6 mb - 0.00 in0.0 mm 0.00 in0.0 mm
03:30 AM 56.4°F13.6°C 54.7°F12.6°C 94% Calm Calm 3.5 mph5.6 kmh 30.02 in1016.6 mb - 0.00 in0.0 mm 0.00 in0.0 mm
03:40 AM 56.4°F13.6°C 54.7°F12.6°C 94% 1.2 mph SSW1.9 kmh SSW 4.6 mph7.4 kmh 30.02 in1016.6 mb - 0.00 in0.0 mm 0.00 in0.0 mm
03:50 AM 56.4°F13.6°C 54.7°F12.6°C 94% Calm Calm -- 30.02 in1016.6 mb - 0.00 in0.0 mm 0.00 in0.0 mm
04:00 AM 56.4°F13.6°C 54.7°F12.6°C 94% Calm Calm -- 30.02 in1016.6 mb - 0.00 in0.0 mm 0.00 in0.0 mm
04:10 AM 56.4°F13.6°C 54.7°F12.6°C 94% Calm Calm -- 30.03 in1016.9 mb - 0.00 in0.0 mm 0.00 in0.0 mm
04:20 AM 56.4°F13.6°C 54.7°F12.6°C 94% Calm Calm -- 30.03 in1016.9 mb - 0.00 in0.0 mm 0.00 in0.0 mm
04:30 AM 56.4°F13.6°C 54.7°F12.6°C 94% Calm Calm -- 30.03 in1016.9 mb - 0.00 in0.0 mm 0.00 in0.0 mm
04:40 AM 56.4°F13.6°C 55.0°F12.8°C 95% Calm Calm -- 30.03 in1016.9 mb - 0.00 in0.0 mm 0.00 in0.0 mm
04:50 AM 56.5°F13.6°C 55.1°F12.8°C 95% 1.2 mph S1.9 kmh S 2.3 mph3.7 kmh 30.03 in1016.9 mb - 0.00 in0.0 mm 0.00 in0.0 mm
05:00 AM 56.5°F13.6°C 55.1°F12.8°C 95% 1.2 mph SSW1.9 kmh SSW 4.6 mph7.4 kmh 30.03 in1016.9 mb - 0.00 in0.0 mm 0.00 in0.0 mm
05:10 AM 56.5°F13.6°C 55.1°F12.8°C 95% Calm Calm -- 30.03 in1016.9 mb - 0.00 in0.0 mm 0.00 in0.0 mm
05:20 AM 56.5°F13.6°C 55.1°F12.8°C 95% Calm Calm -- 30.03 in1016.9 mb - 0.00 in0.0 mm 0.00 in0.0 mm
05:30 AM 56.4°F13.6°C 55.0°F12.8°C 95% Calm Calm -- 30.03 in1016.9 mb - 0.00 in0.0 mm 0.00 in0.0 mm
05:40 AM 56.4°F13.6°C 55.0°F12.8°C 95% Calm Calm -- 30.03 in1016.9 mb - 0.00 in0.0 mm 0.00 in0.0 mm
05:50 AM 56.4°F13.6°C 55.0°F12.8°C 95% Calm Calm -- 30.04 in1017.3 mb - 0.00 in0.0 mm 0.00 in0.0 mm
06:00 AM 56.3°F13.5°C 54.9°F12.7°C 95% Calm Calm -- 30.04 in1017.3 mb - 0.00 in0.0 mm 0.00 in0.0 mm
06:10 AM 56.3°F13.5°C 54.8°F12.7°C 95% Calm Calm -- 30.04 in1017.3 mb - 0.00 in0.0 mm 0.00 in0.0 mm
06:20 AM 55.9°F13.3°C 54.5°F12.5°C 95% Calm Calm -- 30.04 in1017.3 mb - 0.00 in0.0 mm 0.00 in0.0 mm
06:30 AM 55.6°F13.1°C 54.2°F12.3°C 95% Calm Calm -- 30.05 in1017.6 mb - 0.00 in0.0 mm 0.00 in0.0 mm
06:40 AM 55.4°F13.0°C 54.0°F12.2°C 95% Calm Calm -- 30.05 in1017.6 mb - 0.00 in0.0 mm 0.00 in0.0 mm
06:50 AM 55.4°F13.0°C 54.0°F12.2°C 95% Calm Calm -- 30.05 in1017.6 mb - 0.00 in0.0 mm 0.00 in0.0 mm
07:00 AM 55.4°F13.0°C 54.0°F12.2°C 95% Calm Calm -- 30.05 in1017.6 mb - 0.00 in0.0 mm 0.00 in0.0 mm
07:10 AM 55.5°F13.1°C 54.4°F12.4°C 96% Calm Calm -- 30.05 in1017.6 mb - 0.00 in0.0 mm 0.00 in0.0 mm
07:20 AM 55.6°F13.1°C 54.5°F12.5°C 96% Calm Calm -- 30.06 in1017.9 mb - 0.00 in0.0 mm 0.00 in0.0 mm
07:30 AM 55.7°F13.2°C 54.6°F12.6°C 96% Calm Calm -- 30.06 in1017.9 mb - 0.00 in0.0 mm 0.00 in0.0 mm
07:40 AM 55.7°F13.2°C 54.3°F12.4°C 95% Calm Calm -- 30.06 in1017.9 mb - 0.00 in0.0 mm 0.00 in0.0 mm
07:50 AM 55.7°F13.2°C 54.3°F12.4°C 95% Calm Calm -- 30.07 in1018.3 mb - 0.00 in0.0 mm 0.00 in0.0 mm
08:00 AM 55.7°F13.2°C 54.3°F12.4°C 95% Calm Calm -- 30.07 in1018.3 mb - 0.00 in0.0 mm 0.00 in0.0 mm
08:10 AM 55.6°F13.1°C 54.5°F12.5°C 96% Calm Calm -- 30.07 in1018.3 mb - 0.00 in0.0 mm 0.00 in0.0 mm
08:20 AM 55.6°F13.1°C 54.2°F12.3°C 95% Calm Calm -- 30.07 in1018.3 mb - 0.00 in0.0 mm 0.00 in0.0 mm
08:30 AM 55.6°F13.1°C 54.2°F12.3°C 95% Calm Calm -- 30.07 in1018.3 mb - 0.00 in0.0 mm 0.00 in0.0 mm
08:40 AM 55.4°F13.0°C 54.0°F12.2°C 95% 1.2 mph NW1.9 kmh NW 1.2 mph1.9 kmh 30.08 in1018.6 mb - 0.00 in0.0 mm 0.00 in0.0 mm
08:50 AM 55.3°F12.9°C 53.9°F12.2°C 95% Calm Calm 3.5 mph5.6 kmh 30.08 in1018.6 mb - 0.00 in0.0 mm 0.00 in0.0 mm
09:00 AM 55.3°F12.9°C 53.6°F12.0°C 94% Calm Calm -- 30.08 in1018.6 mb - 0.00 in0.0 mm 0.00 in0.0 mm
09:10 AM 55.5°F13.1°C 53.8°F12.1°C 94% Calm Calm -- 30.09 in1019.0 mb - 0.00 in0.0 mm 0.00 in0.0 mm
09:20 AM 55.9°F13.3°C 54.2°F12.3°C 94% Calm Calm -- 30.09 in1019.0 mb - 0.00 in0.0 mm 0.00 in0.0 mm
09:30 AM 56.2°F13.4°C 54.5°F12.5°C 94% Calm Calm -- 30.09 in1019.0 mb - 0.00 in0.0 mm 0.00 in0.0 mm
09:40 AM 56.5°F13.6°C 54.8°F12.7°C 94% Calm Calm -- 30.09 in1019.0 mb - 0.00 in0.0 mm 0.00 in0.0 mm
09:50 AM 56.7°F13.7°C 55.0°F12.8°C 94% Calm Calm 2.3 mph3.7 kmh 30.09 in1019.0 mb - 0.00 in0.0 mm 0.00 in0.0 mm
10:00 AM 56.6°F13.7°C 54.9°F12.7°C 94% Calm Calm 1.2 mph1.9 kmh 30.09 in1019.0 mb - 0.00 in0.0 mm 0.00 in0.0 mm
10:10 AM 56.5°F13.6°C 54.8°F12.7°C 94% Calm Calm -- 30.10 in1019.3 mb - 0.00 in0.0 mm 0.00 in0.0 mm
10:20 AM 56.3°F13.5°C 54.6°F12.6°C 94% Calm Calm -- 30.10 in1019.3 mb - 0.00 in0.0 mm 0.00 in0.0 mm
10:30 AM 56.1°F13.4°C 54.4°F12.4°C 94% Calm Calm -- 30.10 in1019.3 mb - 0.01 in0.3 mm 0.01 in0.3 mm
10:40 AM 56.0°F13.3°C 54.3°F12.4°C 94% Calm Calm 2.3 mph3.7 kmh 30.10 in1019.3 mb - 0.00 in0.0 mm 0.01 in0.3 mm
10:50 AM 55.9°F13.3°C 54.2°F12.3°C 94% Calm Calm -- 30.10 in1019.3 mb - 0.01 in0.3 mm 0.02 in0.5 mm
11:00 AM 56.0°F13.3°C 54.6°F12.6°C 95% Calm Calm -- 30.10 in1019.3 mb - 0.00 in0.0 mm 0.02 in0.5 mm
11:10 AM 56.2°F13.4°C 54.8°F12.7°C 95% Calm Calm -- 30.11 in1019.6 mb - 0.00 in0.0 mm 0.02 in0.5 mm
11:20 AM 56.2°F13.4°C 54.8°F12.7°C 95% Calm Calm 1.2 mph1.9 kmh 30.11 in1019.6 mb - 0.00 in0.0 mm 0.02 in0.5 mm
11:30 AM 56.3°F13.5°C 54.9°F12.7°C 95% Calm Calm -- 30.11 in1019.6 mb - 0.00 in0.0 mm 0.02 in0.5 mm
11:40 AM 56.5°F13.6°C 55.1°F12.8°C 95% Calm Calm -- 30.11 in1019.6 mb - 0.01 in0.3 mm 0.02 in0.5 mm
11:50 AM 56.7°F13.7°C 55.3°F12.9°C 95% Calm Calm -- 30.11 in1019.6 mb - 0.00 in0.0 mm 0.02 in0.5 mm
12:00 PM 56.9°F13.8°C 55.5°F13.1°C 95% Calm Calm -- 30.11 in1019.6 mb - 0.00 in0.0 mm 0.02 in0.5 mm
12:10 PM 56.9°F13.8°C 55.2°F12.9°C 94% 1.2 mph N1.9 kmh N 2.3 mph3.7 kmh 30.11 in1019.6 mb - 0.00 in0.0 mm 0.02 in0.5 mm
12:20 PM 56.7°F13.7°C 55.0°F12.8°C 94% Calm Calm -- 30.11 in1019.6 mb - 0.00 in0.0 mm 0.02 in0.5 mm
12:30 PM 57.0°F13.9°C 55.6°F13.1°C 95% Calm Calm 2.3 mph3.7 kmh 30.11 in1019.6 mb - 0.00 in0.0 mm 0.02 in0.5 mm
12:40 PM 56.8°F13.8°C 55.1°F12.8°C 94% Calm Calm -- 30.11 in1019.6 mb - 0.00 in0.0 mm 0.02 in0.5 mm
12:50 PM 56.9°F13.8°C 55.2°F12.9°C 94% Calm Calm 4.6 mph7.4 kmh 30.11 in1019.6 mb - 0.00 in0.0 mm 0.02 in0.5 mm
01:00 PM 56.8°F13.8°C 55.1°F12.8°C 94% Calm Calm 1.2 mph1.9 kmh 30.11 in1019.6 mb - 0.00 in0.0 mm 0.02 in0.5 mm
01:10 PM 57.0°F13.9°C 55.3°F12.9°C 94% Calm Calm -- 30.11 in1019.6 mb - 0.00 in0.0 mm 0.02 in0.5 mm
01:20 PM 57.2°F14.0°C 54.9°F12.7°C 92% Calm Calm -- 30.11 in1019.6 mb - 0.00 in0.0 mm 0.02 in0.5 mm
01:30 PM 57.5°F14.2°C 54.9°F12.7°C 91% Calm Calm -- 30.11 in1019.6 mb - 0.00 in0.0 mm 0.02 in0.5 mm
01:40 PM 58.2°F14.6°C 55.6°F13.1°C 91% Calm Calm -- 30.11 in1019.6 mb - 0.00 in0.0 mm 0.02 in0.5 mm
01:50 PM 58.5°F14.7°C 55.9°F13.3°C 91% 2.3 mph NNW3.7 kmh NNW 4.6 mph7.4 kmh 30.11 in1019.6 mb - 0.00 in0.0 mm 0.02 in0.5 mm
02:00 PM 58.6°F14.8°C 56.0°F13.3°C 91% 1.2 mph NW1.9 kmh NW 3.5 mph5.6 kmh 30.11 in1019.6 mb - 0.00 in0.0 mm 0.02 in0.5 mm
02:10 PM 58.2°F14.6°C 55.3°F12.9°C 90% 1.2 mph NW1.9 kmh NW 1.2 mph1.9 kmh 30.11 in1019.6 mb - 0.00 in0.0 mm 0.02 in0.5 mm
02:20 PM 57.8°F14.3°C 55.2°F12.9°C 91% Calm Calm -- 30.12 in1020.0 mb - 0.00 in0.0 mm 0.02 in0.5 mm
02:30 PM 57.6°F14.2°C 55.3°F12.9°C 92% 1.2 mph NW1.9 kmh NW 4.6 mph7.4 kmh 30.12 in1020.0 mb - 0.00 in0.0 mm 0.02 in0.5 mm
02:40 PM 57.5°F14.2°C 55.2°F12.9°C 92% Calm Calm -- 30.12 in1020.0 mb - 0.00 in0.0 mm 0.02 in0.5 mm
02:50 PM 57.6°F14.2°C 55.2°F12.9°C 92% Calm Calm -- 30.12 in1020.0 mb - 0.00 in0.0 mm 0.02 in0.5 mm
03:00 PM 57.6°F14.2°C 55.3°F12.9°C 92% Calm Calm -- 30.12 in1020.0 mb - 0.00 in0.0 mm 0.02 in0.5 mm
03:10 PM 57.5°F14.2°C 54.9°F12.7°C 91% Calm Calm -- 30.12 in1020.0 mb - 0.00 in0.0 mm 0.02 in0.5 mm
03:20 PM 57.5°F14.2°C 54.9°F12.7°C 91% Calm Calm 2.3 mph3.7 kmh 30.12 in1020.0 mb - 0.00 in0.0 mm 0.02 in0.5 mm
03:30 PM 57.7°F14.3°C 55.1°F12.8°C 91% Calm Calm -- 30.12 in1020.0 mb - 0.00 in0.0 mm 0.02 in0.5 mm
03:40 PM 57.8°F14.3°C 54.9°F12.7°C 90% Calm Calm -- 30.12 in1020.0 mb - 0.00 in0.0 mm 0.02 in0.5 mm
03:50 PM 57.7°F14.3°C 54.8°F12.7°C 90% Calm Calm -- 30.13 in1020.3 mb - 0.00 in0.0 mm 0.02 in0.5 mm
04:00 PM 57.7°F14.3°C 54.8°F12.7°C 90% Calm Calm -- 30.13 in1020.3 mb - 0.00 in0.0 mm 0.02 in0.5 mm
04:10 PM 57.7°F14.3°C 54.8°F12.7°C 90% Calm Calm 1.2 mph1.9 kmh 30.13 in1020.3 mb - 0.00 in0.0 mm 0.02 in0.5 mm
04:20 PM 57.7°F14.3°C 54.8°F12.7°C 90% Calm Calm -- 30.13 in1020.3 mb - 0.00 in0.0 mm 0.02 in0.5 mm
04:30 PM 57.7°F14.3°C 54.5°F12.5°C 89% Calm Calm -- 30.13 in1020.3 mb - 0.00 in0.0 mm 0.02 in0.5 mm
04:40 PM 57.7°F14.3°C 54.5°F12.5°C 89% Calm Calm -- 30.14 in1020.7 mb - 0.00 in0.0 mm 0.02 in0.5 mm
04:50 PM 57.7°F14.3°C 54.5°F12.5°C 89% Calm Calm -- 30.14 in1020.7 mb - 0.00 in0.0 mm 0.02 in0.5 mm
05:00 PM 57.6°F14.2°C 54.4°F12.4°C 89% Calm Calm -- 30.15 in1021.0 mb - 0.00 in0.0 mm 0.02 in0.5 mm
05:10 PM 57.5°F14.2°C 54.3°F12.4°C 89% Calm Calm -- 30.15 in1021.0 mb - 0.00 in0.0 mm 0.02 in0.5 mm
05:20 PM 57.5°F14.2°C 54.6°F12.6°C 90% Calm Calm 1.2 mph1.9 kmh 30.16 in1021.3 mb - 0.00 in0.0 mm 0.02 in0.5 mm
05:30 PM 57.3°F14.1°C 54.4°F12.4°C 90% Calm Calm -- 30.16 in1021.3 mb - 0.00 in0.0 mm 0.02 in0.5 mm
05:40 PM 57.2°F14.0°C 54.3°F12.4°C 90% Calm Calm -- 30.16 in1021.3 mb - 0.00 in0.0 mm 0.02 in0.5 mm
05:50 PM 57.1°F13.9°C 54.2°F12.3°C 90% Calm Calm -- 30.17 in1021.7 mb - 0.00 in0.0 mm 0.02 in0.5 mm
06:00 PM 56.9°F13.8°C 54.0°F12.2°C 90% Calm Calm -- 30.17 in1021.7 mb - 0.00 in0.0 mm 0.02 in0.5 mm
06:10 PM 56.8°F13.8°C 53.9°F12.2°C 90% Calm Calm -- 30.18 in1022.0 mb - 0.00 in0.0 mm 0.02 in0.5 mm
06:20 PM 56.8°F13.8°C 53.9°F12.2°C 90% Calm Calm -- 30.18 in1022.0 mb - 0.00 in0.0 mm 0.02 in0.5 mm
06:30 PM 56.8°F13.8°C 53.9°F12.2°C 90% Calm Calm -- 30.18 in1022.0 mb - 0.00 in0.0 mm 0.02 in0.5 mm
06:40 PM 56.7°F13.7°C 53.8°F12.1°C 90% Calm Calm -- 30.18 in1022.0 mb - 0.00 in0.0 mm 0.02 in0.5 mm
06:50 PM 56.6°F13.7°C 53.7°F12.1°C 90% Calm Calm -- 30.19 in1022.4 mb - 0.00 in0.0 mm 0.02 in0.5 mm
07:00 PM 56.6°F13.7°C 54.0°F12.2°C 91% Calm Calm -- 30.19 in1022.4 mb - 0.00 in0.0 mm 0.02 in0.5 mm
07:10 PM 56.6°F13.7°C 54.0°F12.2°C 91% Calm Calm -- 30.20 in1022.7 mb - 0.00 in0.0 mm 0.02 in0.5 mm
07:20 PM 56.6°F13.7°C 54.1°F12.3°C 91% Calm Calm -- 30.20 in1022.7 mb - 0.00 in0.0 mm 0.02 in0.5 mm
07:30 PM 56.6°F13.7°C 54.0°F12.2°C 91% Calm Calm -- 30.20 in1022.7 mb - 0.00 in0.0 mm 0.02 in0.5 mm
07:40 PM 56.6°F13.7°C 54.0°F12.2°C 91% Calm Calm -- 30.20 in1022.7 mb - 0.00 in0.0 mm 0.02 in0.5 mm
07:50 PM 56.5°F13.6°C 53.9°F12.2°C 91% Calm Calm -- 30.21 in1023.0 mb - 0.00 in0.0 mm 0.02 in0.5 mm
08:00 PM 56.5°F13.6°C 54.2°F12.3°C 92% Calm Calm -- 30.21 in1023.0 mb - 0.00 in0.0 mm 0.02 in0.5 mm
08:10 PM 56.4°F13.6°C 54.1°F12.3°C 92% Calm Calm -- 30.22 in1023.4 mb - 0.00 in0.0 mm 0.02 in0.5 mm
08:20 PM 56.4°F13.6°C 54.1°F12.3°C 92% Calm Calm -- 30.22 in1023.4 mb - 0.00 in0.0 mm 0.02 in0.5 mm
08:30 PM 56.4°F13.6°C 54.1°F12.3°C 92% Calm Calm -- 30.22 in1023.4 mb - 0.00 in0.0 mm 0.02 in0.5 mm
08:40 PM 56.4°F13.6°C 54.1°F12.3°C 92% Calm Calm -- 30.23 in1023.7 mb - 0.00 in0.0 mm 0.02 in0.5 mm
08:50 PM 56.3°F13.5°C 54.0°F12.2°C 92% Calm Calm -- 30.23 in1023.7 mb - 0.00 in0.0 mm 0.02 in0.5 mm
09:00 PM 56.2°F13.4°C 53.9°F12.2°C 92% Calm Calm -- 30.23 in1023.7 mb - 0.00 in0.0 mm 0.02 in0.5 mm
09:10 PM 56.2°F13.4°C 53.9°F12.2°C 92% Calm Calm -- 30.23 in1023.7 mb - 0.00 in0.0 mm 0.02 in0.5 mm
09:20 PM 56.2°F13.4°C 53.9°F12.2°C 92% Calm Calm -- 30.24 in1024.0 mb - 0.00 in0.0 mm 0.02 in0.5 mm
09:30 PM 56.2°F13.4°C 53.9°F12.2°C 92% Calm Calm -- 30.24 in1024.0 mb - 0.00 in0.0 mm 0.02 in0.5 mm
09:40 PM 56.1°F13.4°C 53.8°F12.1°C 92% 1.2 mph NNW1.9 kmh NNW 3.5 mph5.6 kmh 30.25 in1024.4 mb - 0.00 in0.0 mm 0.02 in0.5 mm
09:50 PM 56.0°F13.3°C 53.4°F11.9°C 91% Calm Calm 1.2 mph1.9 kmh 30.25 in1024.4 mb - 0.00 in0.0 mm 0.02 in0.5 mm
10:00 PM 55.9°F13.3°C 53.3°F11.8°C 91% 2.3 mph N3.7 kmh N 8.1 mph13.0 kmh 30.25 in1024.4 mb - 0.00 in0.0 mm 0.02 in0.5 mm
10:10 PM 55.9°F13.3°C 53.3°F11.8°C 91% Calm Calm 2.3 mph3.7 kmh 30.25 in1024.4 mb - 0.00 in0.0 mm 0.02 in0.5 mm
10:20 PM 56.0°F13.3°C 53.1°F11.7°C 90% 4.6 mph N7.4 kmh N 6.9 mph11.1 kmh 30.26 in1024.7 mb - 0.00 in0.0 mm 0.02 in0.5 mm
10:30 PM 55.8°F13.2°C 52.9°F11.6°C 90% 1.2 mph NNE1.9 kmh NNE 6.9 mph11.1 kmh 30.26 in1024.7 mb - 0.00 in0.0 mm 0.02 in0.5 mm
10:40 PM 55.7°F13.2°C 52.8°F11.6°C 90% 2.3 mph N3.7 kmh N 4.6 mph7.4 kmh 30.26 in1024.7 mb - 0.00 in0.0 mm 0.02 in0.5 mm
10:50 PM 55.6°F13.1°C 52.4°F11.3°C 89% 4.6 mph N7.4 kmh N 6.9 mph11.1 kmh 30.26 in1024.7 mb - 0.00 in0.0 mm 0.02 in0.5 mm
11:00 PM 55.5°F13.1°C 52.3°F11.3°C 89% 1.2 mph N1.9 kmh N 5.8 mph9.3 kmh 30.26 in1024.7 mb - 0.00 in0.0 mm 0.03 in0.8 mm
11:10 PM 55.4°F13.0°C 52.3°F11.3°C 89% Calm Calm 1.2 mph1.9 kmh 30.26 in1024.7 mb - 0.00 in0.0 mm 0.03 in0.8 mm
11:20 PM 55.4°F13.0°C 52.2°F11.2°C 89% 1.2 mph N1.9 kmh N 3.5 mph5.6 kmh 30.26 in1024.7 mb - 0.00 in0.0 mm 0.03 in0.8 mm
11:30 PM 55.3°F12.9°C 52.1°F11.2°C 89% 2.3 mph N3.7 kmh N 4.6 mph7.4 kmh 30.26 in1024.7 mb - 0.00 in0.0 mm 0.03 in0.8 mm
11:40 PM 55.2°F12.9°C 52.0°F11.1°C 89% 2.3 mph N3.7 kmh N 4.6 mph7.4 kmh 30.26 in1024.7 mb - 0.00 in0.0 mm 0.03 in0.8 mm
11:50 PM 55.2°F12.9°C 52.0°F11.1°C 89% 3.5 mph N5.6 kmh N 6.9 mph11.1 kmh 30.27 in1025.1 mb - 0.00 in0.0 mm 0.03 in0.8 mm